Time;durP1;ratioP1;P1;durP2;ratioP2;P2;SDS_P1;SDS_P2;PMS_P1;PMS_P2;Temp;Humidity;BMP_temperature;BMP_pressure;BME280_temperature;BME280_humidity;BME280_pressure;Samples;Min_cycle;Max_cycle;Signal;HPM_P1;HPM_P2
2023/11/21 00:00:36;;;;;;;7.75;1.83;;;23.00;34.20;;;;;;5036058;28;20033;-62
2023/11/21 00:03:03;;;;;;;13.18;2.25;;;22.80;34.20;;;;;;5032365;28;20056;-61
2023/11/21 00:05:30;;;;;;;17.92;2.15;;;22.80;34.50;;;;;;5032632;28;20032;-59
2023/11/21 00:07:57;;;;;;;17.65;2.22;;;22.70;34.90;;;;;;5032660;28;20521;-62
2023/11/21 00:10:23;;;;;;;17.05;2.33;;;22.60;35.30;;;;;;5035355;28;20060;-60
2023/11/21 00:12:49;;;;;;;14.27;2.08;;;22.50;35.20;;;;;;5031786;28;20438;-61
2023/11/21 00:15:16;;;;;;;14.90;2.80;;;22.50;35.90;;;;;;5035188;28;20041;-60
2023/11/21 00:17:42;;;;;;;12.18;2.17;;;22.40;35.50;;;;;;5032722;28;20060;-61
2023/11/21 00:20:12;;;;;;;21.30;2.90;;;22.30;35.50;;;;;;5035069;28;20106;-62
2023/11/21 00:22:40;;;;;;;15.60;2.70;;;22.20;35.90;;;;;;5035432;28;20051;-60
2023/11/21 00:25:08;;;;;;;12.00;2.13;;;22.20;35.30;;;;;;5032963;28;20033;-60
2023/11/21 00:27:36;;;;;;;15.25;2.63;;;22.10;36.00;;;;;;5033542;28;20168;-60
2023/11/21 00:30:07;;;;;;;12.30;2.70;;;22.00;36.90;;;;;;5034674;28;20498;-60
2023/11/21 00:32:33;;;;;;;9.40;2.50;;;21.90;37.50;;;;;;5030757;28;20041;-63
2023/11/21 00:35:00;;;;;;;17.38;2.88;;;21.80;38.80;;;;;;5032456;28;20030;-62
2023/11/21 00:37:26;;;;;;;15.90;2.60;;;21.70;38.30;;;;;;5031839;28;20573;-61
2023/11/21 00:39:53;;;;;;;15.35;3.22;;;21.60;38.90;;;;;;5031720;28;20046;-61
2023/11/21 00:42:19;;;;;;;18.83;3.72;;;21.50;39.30;;;;;;5032385;28;20037;-62
2023/11/21 00:44:46;;;;;;;18.30;3.38;;;21.40;39.20;;;;;;5034149;28;20133;-62
2023/11/21 00:47:12;;;;;;;27.25;3.30;;;21.30;39.60;;;;;;5032899;28;20038;-62
2023/11/21 00:49:39;;;;;;;25.02;3.17;;;21.20;39.20;;;;;;5032501;28;20045;-62
2023/11/21 00:52:06;;;;;;;16.95;3.20;;;21.10;39.50;;;;;;5031910;28;20066;-62
2023/11/21 00:54:33;;;;;;;20.00;4.00;;;20.90;39.60;;;;;;5032635;28;20421;-63
2023/11/21 00:57:00;;;;;;;31.15;3.85;;;20.80;40.10;;;;;;5032432;28;20048;-61
2023/11/21 00:59:26;;;;;;;19.92;2.83;;;20.70;41.10;;;;;;5033401;28;20691;-61
2023/11/21 01:01:54;;;;;;;26.15;4.05;;;20.70;41.90;;;;;;5032481;28;20110;-60
2023/11/21 01:04:20;;;;;;;21.70;5.55;;;20.50;42.10;;;;;;5035477;28;20049;-61
2023/11/21 01:06:47;;;;;;;43.05;7.72;;;20.50;43.20;;;;;;5033974;28;20426;-63
2023/11/21 01:09:13;;;;;;;31.88;7.50;;;20.40;43.30;;;;;;5032456;28;20495;-63
2023/11/21 01:11:40;;;;;;;25.52;4.25;;;20.20;42.60;;;;;;5030530;28;20058;-63
2023/11/21 01:14:08;;;;;;;13.82;3.58;;;20.10;41.70;;;;;;5033531;28;20041;-63
2023/11/21 01:16:35;;;;;;;20.35;3.05;;;20.10;38.50;;;;;;5031568;28;20045;-60
2023/11/21 01:19:02;;;;;;;13.48;2.30;;;20.20;37.10;;;;;;5031543;28;20539;-62
2023/11/21 01:21:28;;;;;;;8.90;2.20;;;20.30;37.00;;;;;;5031959;28;20051;-65
2023/11/21 01:23:55;;;;;;;12.20;2.38;;;20.30;36.80;;;;;;5034877;28;20041;-64
2023/11/21 01:26:21;;;;;;;13.13;2.38;;;20.30;37.10;;;;;;5034448;28;20061;-62
2023/11/21 01:28:48;;;;;;;10.98;2.33;;;20.30;37.20;;;;;;5033011;28;20084;-63
2023/11/21 01:31:19;;;;;;;10.73;2.70;;;20.30;37.40;;;;;;5031223;28;20064;-62
2023/11/21 01:33:45;;;;;;;20.25;2.47;;;20.30;37.70;;;;;;5034554;28;20053;-62
2023/11/21 01:36:12;;;;;;;12.43;1.92;;;20.30;37.80;;;;;;5031806;28;20045;-62
2023/11/21 01:38:38;;;;;;;17.85;2.25;;;20.30;38.50;;;;;;5033451;28;20059;-60
2023/11/21 01:41:06;;;;;;;15.73;2.25;;;20.20;38.30;;;;;;5034025;28;20096;-60
2023/11/21 01:43:32;;;;;;;15.32;2.55;;;20.20;38.90;;;;;;5030768;28;20048;-64
2023/11/21 01:45:59;;;;;;;21.17;2.70;;;20.10;39.80;;;;;;5032998;28;20127;-65
2023/11/21 01:48:27;;;;;;;15.45;2.78;;;20.10;40.40;;;;;;5034068;28;20041;-62
2023/11/21 01:50:54;;;;;;;14.10;2.45;;;20.00;40.40;;;;;;5032544;28;20579;-63
2023/11/21 01:53:20;;;;;;;15.90;2.45;;;19.90;40.80;;;;;;5032433;28;20047;-65
2023/11/21 01:55:47;;;;;;;20.20;3.25;;;19.80;40.10;;;;;;5033534;28;20084;-61
2023/11/21 01:58:14;;;;;;;18.88;3.08;;;19.70;40.60;;;;;;5031546;28;20067;-61
2023/11/21 02:00:41;;;;;;;21.50;3.30;;;19.80;41.10;;;;;;5031862;28;20122;-64
2023/11/21 02:03:07;;;;;;;19.05;3.13;;;19.60;41.30;;;;;;5033837;28;20405;-63
2023/11/21 02:05:34;;;;;;;14.68;3.17;;;19.50;41.70;;;;;;5033874;28;20043;-62
2023/11/21 02:08:02;;;;;;;27.05;4.25;;;19.50;42.10;;;;;;5032973;28;20509;-62
2023/11/21 02:10:29;;;;;;;22.60;4.40;;;19.40;43.20;;;;;;5032521;28;20528;-63
2023/11/21 02:12:56;;;;;;;25.17;4.63;;;19.40;43.20;;;;;;5031092;28;20130;-61
2023/11/21 02:15:26;;;;;;;23.15;5.13;;;19.30;42.30;;;;;;5032726;28;20060;-62
2023/11/21 02:17:53;;;;;;;30.95;5.50;;;19.30;42.70;;;;;;5030302;28;20432;-62
2023/11/21 02:20:22;;;;;;;21.85;4.35;;;19.20;43.30;;;;;;5033672;28;20104;-63
2023/11/21 02:22:59;;;;;;;23.98;4.88;;;19.20;42.80;;;;;;5032552;28;20142;-63
2023/11/21 02:25:29;;;;;;;17.70;4.93;;;19.20;42.70;;;;;;5034327;28;20129;-62
2023/11/21 02:27:57;;;;;;;23.38;4.60;;;19.10;44.70;;;;;;5032362;28;20090;-61
2023/11/21 02:30:25;;;;;;;19.05;4.57;;;19.10;44.30;;;;;;5033666;28;20040;-61
2023/11/21 02:32:56;;;;;;;16.00;4.60;;;19.00;44.00;;;;;;5032213;28;20052;-62
2023/11/21 02:35:25;;;;;;;28.08;5.05;;;18.90;44.20;;;;;;5032036;28;20048;-63
2023/11/21 02:37:52;;;;;;;17.92;5.30;;;18.80;44.80;;;;;;5033896;28;20067;-64
2023/11/21 02:40:20;;;;;;;25.98;5.93;;;18.80;45.00;;;;;;5036726;28;20061;-61
2023/11/21 02:42:47;;;;;;;31.80;6.00;;;18.70;45.90;;;;;;5035542;28;20403;-65
2023/11/21 02:45:16;;;;;;;30.08;6.78;;;18.70;45.20;;;;;;5036707;28;20046;-64
2023/11/21 02:47:44;;;;;;;24.92;6.95;;;18.60;45.60;;;;;;5034370;28;20059;-64
2023/11/21 02:50:10;;;;;;;23.90;6.35;;;18.60;45.30;;;;;;5035506;28;20101;-66
2023/11/21 02:52:37;;;;;;;18.75;6.32;;;18.60;46.30;;;;;;5036593;28;20053;-63
2023/11/21 02:55:04;;;;;;;34.53;7.90;;;18.50;46.70;;;;;;5036045;28;20400;-63
2023/11/21 02:57:31;;;;;;;29.75;6.68;;;18.40;45.80;;;;;;5035579;28;20063;-65
2023/11/21 02:59:57;;;;;;;20.88;5.97;;;18.40;46.80;;;;;;5034996;28;20066;-63
2023/11/21 03:02:23;;;;;;;32.00;7.55;;;18.40;46.70;;;;;;5036433;28;20524;-64
2023/11/21 03:04:50;;;;;;;33.05;8.50;;;18.30;47.80;;;;;;5037997;28;20052;-62
2023/11/21 03:07:19;;;;;;;29.55;8.13;;;18.20;47.40;;;;;;5036188;28;20052;-61
2023/11/21 03:09:46;;;;;;;42.05;8.02;;;18.10;48.10;;;;;;5034811;28;20553;-62
2023/11/21 03:12:12;;;;;;;31.02;8.98;;;18.10;48.10;;;;;;5034358;28;20084;-67
2023/11/21 03:14:40;;;;;;;40.17;9.55;;;18.10;48.20;;;;;;5036364;28;20117;-61
2023/11/21 03:17:07;;;;;;;35.22;9.60;;;18.00;47.60;;;;;;5036584;28;20048;-63
2023/11/21 03:19:33;;;;;;;50.15;10.48;;;18.00;47.70;;;;;;5034117;28;20061;-61
2023/11/21 03:22:00;;;;;;;35.05;9.50;;;17.90;47.60;;;;;;5035024;28;20517;-61
2023/11/21 03:24:26;;;;;;;33.60;11.38;;;17.90;48.00;;;;;;5036566;28;20045;-59
2023/11/21 03:26:53;;;;;;;34.33;10.93;;;17.90;48.30;;;;;;5038509;28;20055;-62
2023/11/21 03:29:19;;;;;;;38.20;11.10;;;17.90;49.10;;;;;;5034862;28;20159;-63
2023/11/21 03:31:46;;;;;;;40.70;10.68;;;17.80;49.30;;;;;;5037702;28;20048;-63
2023/11/21 03:34:27;;;;;;;40.08;11.20;;;17.70;50.20;;;;;;5034683;28;20081;-61
2023/11/21 03:36:54;;;;;;;38.22;12.65;;;17.70;50.00;;;;;;5035500;28;20042;-62
2023/11/21 03:39:22;;;;;;;40.20;10.98;;;17.60;50.10;;;;;;5034787;28;20139;-63
2023/11/21 03:41:48;;;;;;;44.33;11.60;;;17.60;49.90;;;;;;5035167;28;20057;-62
2023/11/21 03:44:15;;;;;;;35.45;10.07;;;17.50;50.90;;;;;;5034939;28;20114;-64
2023/11/21 03:46:42;;;;;;;41.55;11.15;;;17.50;50.80;;;;;;5033363;28;20044;-61
2023/11/21 03:49:08;;;;;;;33.75;10.40;;;17.40;50.60;;;;;;5034731;28;20084;-61
2023/11/21 03:51:35;;;;;;;35.00;10.38;;;17.40;50.70;;;;;;5036462;28;20084;-67
2023/11/21 03:54:01;;;;;;;38.45;11.38;;;17.30;50.00;;;;;;5034932;28;20088;-66
2023/11/21 03:56:27;;;;;;;35.28;10.20;;;17.30;49.30;;;;;;5033219;28;20054;-65
2023/11/21 03:58:54;;;;;;;30.33;10.43;;;17.30;50.70;;;;;;5034490;28;20068;-65
2023/11/21 04:01:24;;;;;;;51.15;12.02;;;17.20;51.80;;;;;;5035187;28;20053;-66
2023/11/21 04:03:51;;;;;;;38.47;11.20;;;17.20;51.50;;;;;;5035057;28;20042;-62
2023/11/21 04:06:18;;;;;;;43.67;11.18;;;17.20;51.10;;;;;;5035065;28;20524;-61
2023/11/21 04:08:45;;;;;;;52.17;15.35;;;17.10;51.30;;;;;;5036971;28;20098;-61
2023/11/21 04:11:12;;;;;;;52.92;17.70;;;17.10;51.20;;;;;;5036901;28;20061;-61
2023/11/21 04:13:40;;;;;;;57.42;15.48;;;17.10;51.00;;;;;;5034130;28;20050;-60
2023/11/21 04:16:08;;;;;;;53.03;14.65;;;17.00;50.50;;;;;;5036044;28;20515;-62
2023/11/21 04:18:36;;;;;;;54.95;13.98;;;17.00;50.40;;;;;;5033910;28;20065;-63
2023/11/21 04:21:03;;;;;;;49.28;13.07;;;17.00;49.90;;;;;;5036698;28;20130;-64
2023/11/21 04:23:31;;;;;;;60.78;16.70;;;17.00;50.40;;;;;;5035891;28;20043;-63
2023/11/21 04:25:58;;;;;;;77.05;18.98;;;17.00;49.40;;;;;;5036787;28;20514;-62
2023/11/21 04:28:25;;;;;;;74.85;20.10;;;17.00;48.70;;;;;;5034315;28;20089;-63
2023/11/21 04:30:52;;;;;;;69.07;17.38;;;17.00;48.90;;;;;;5034579;28;20058;-64
2023/11/21 04:33:18;;;;;;;52.22;16.65;;;17.10;48.60;;;;;;5036829;28;20050;-61
2023/11/21 04:35:45;;;;;;;51.00;15.20;;;17.10;47.70;;;;;;5036674;28;20058;-61
2023/11/21 04:38:11;;;;;;;61.50;15.82;;;17.10;47.20;;;;;;5037200;28;20066;-61
2023/11/21 04:40:38;;;;;;;62.13;15.45;;;17.10;47.30;;;;;;5035567;28;20132;-61
2023/11/21 04:43:05;;;;;;;59.45;15.50;;;17.20;47.30;;;;;;5034874;28;20045;-61
2023/11/21 04:45:32;;;;;;;58.67;14.45;;;17.10;47.80;;;;;;5034618;28;20189;-61
2023/11/21 04:47:58;;;;;;;62.03;25.42;;;17.10;48.50;;;;;;5035072;28;20466;-63
2023/11/21 04:50:27;;;;;;;58.17;16.20;;;17.00;48.40;;;;;;5034305;28;20461;-63
2023/11/21 04:52:54;;;;;;;66.28;18.42;;;17.00;48.80;;;;;;5036379;28;20117;-63
2023/11/21 04:55:20;;;;;;;59.50;18.92;;;17.00;48.50;;;;;;5032717;28;20060;-57
2023/11/21 04:57:47;;;;;;;54.28;15.70;;;16.90;48.50;;;;;;5033581;28;20500;-64
2023/11/21 05:00:13;;;;;;;56.35;15.90;;;16.90;48.60;;;;;;5033418;28;20077;-62
2023/11/21 05:02:44;;;;;;;57.70;15.95;;;16.80;49.00;;;;;;5033252;28;20151;-64
2023/11/21 05:05:10;;;;;;;56.38;14.23;;;16.80;49.00;;;;;;5035951;28;20046;-62
2023/11/21 05:07:37;;;;;;;59.20;13.90;;;16.80;48.60;;;;;;5033493;28;20050;-63
2023/11/21 05:10:11;;;;;;;62.47;12.85;;;16.80;48.60;;;;;;5034594;28;20052;-62
2023/11/21 05:12:38;;;;;;;53.55;13.68;;;16.80;48.80;;;;;;5032395;28;20396;-62
2023/11/21 05:15:11;;;;;;;58.55;14.23;;;16.70;48.50;;;;;;5033395;28;20511;-64
2023/11/21 05:17:44;;;;;;;52.22;14.15;;;16.70;48.70;;;;;;5032152;28;20066;-63
2023/11/21 05:20:13;;;;;;;57.60;14.68;;;16.70;48.30;;;;;;5031259;28;20624;-62
2023/11/21 05:22:40;;;;;;;60.47;13.18;;;16.70;48.40;;;;;;5035671;28;20403;-62
2023/11/21 05:25:08;;;;;;;61.05;13.18;;;16.70;48.20;;;;;;5029828;28;20044;-62
2023/11/21 05:27:34;;;;;;;52.20;12.40;;;16.60;49.10;;;;;;5034740;28;20572;-60
2023/11/21 05:30:05;;;;;;;56.95;14.23;;;16.60;48.50;;;;;;5033530;28;20489;-59
2023/11/21 05:32:32;;;;;;;56.35;15.05;;;16.60;49.30;;;;;;5033389;28;20053;-63
2023/11/21 05:34:59;;;;;;;45.47;10.70;;;16.50;47.70;;;;;;5031712;28;20046;-61
2023/11/21 05:37:26;;;;;;;40.85;9.73;;;16.60;46.60;;;;;;5034035;28;20517;-64
2023/11/21 05:39:56;;;;;;;35.50;8.68;;;16.60;46.10;;;;;;5031912;28;20512;-63
2023/11/21 05:42:23;;;;;;;35.92;10.25;;;16.60;46.10;;;;;;5033604;28;20051;-61
2023/11/21 05:44:50;;;;;;;37.45;9.30;;;16.70;46.30;;;;;;5034106;28;20045;-61
2023/11/21 05:47:17;;;;;;;32.72;8.40;;;16.70;46.10;;;;;;5033025;28;20421;-61
2023/11/21 05:49:45;;;;;;;29.30;7.93;;;16.70;45.90;;;;;;5032280;28;20061;-65
2023/11/21 05:52:11;;;;;;;36.90;7.88;;;16.60;45.70;;;;;;5030950;28;20111;-61
2023/11/21 05:54:38;;;;;;;37.45;8.23;;;16.70;46.30;;;;;;5031010;28;20049;-59
2023/11/21 05:57:04;;;;;;;37.80;9.52;;;16.60;46.40;;;;;;5033809;28;20053;-59
2023/11/21 05:59:31;;;;;;;32.55;9.38;;;16.60;46.40;;;;;;5034074;28;20441;-62
2023/11/21 06:01:58;;;;;;;32.42;7.88;;;16.60;45.80;;;;;;5033626;28;20153;-60
2023/11/21 06:04:25;;;;;;;39.35;9.88;;;16.60;45.70;;;;;;5031774;28;20526;-62
2023/11/21 06:06:55;;;;;;;34.13;9.32;;;16.60;47.50;;;;;;5035549;28;20049;-61
2023/11/21 06:09:22;;;;;;;43.63;9.27;;;16.50;46.80;;;;;;5032891;28;20059;-61
2023/11/21 06:11:49;;;;;;;51.13;9.85;;;16.50;47.00;;;;;;5031944;28;20038;-60
2023/11/21 06:14:17;;;;;;;32.17;8.75;;;16.50;46.90;;;;;;5032362;28;20047;-66
2023/11/21 06:16:45;;;;;;;37.80;8.57;;;16.50;47.50;;;;;;5030178;28;20101;-61
2023/11/21 06:19:12;;;;;;;38.17;9.10;;;16.40;48.20;;;;;;5032034;28;20127;-62
2023/11/21 06:21:38;;;;;;;37.28;8.10;;;16.30;48.60;;;;;;5031945;28;20452;-58
2023/11/21 06:24:05;;;;;;;31.90;7.95;;;16.30;48.30;;;;;;5031541;28;20047;-60
2023/11/21 06:26:32;;;;;;;25.27;8.27;;;16.20;48.80;;;;;;5032152;28;20436;-61
2023/11/21 06:28:59;;;;;;;31.35;8.35;;;16.20;49.20;;;;;;5033639;28;20097;-61
2023/11/21 06:31:26;;;;;;;28.08;8.05;;;16.20;49.30;;;;;;5032854;28;20071;-62
2023/11/21 06:33:52;;;;;;;39.22;8.35;;;16.10;48.80;;;;;;5032027;28;20105;-60
2023/11/21 06:36:19;;;;;;;34.60;8.65;;;16.10;49.20;;;;;;5033816;28;20068;-63
2023/11/21 06:38:46;;;;;;;48.53;9.45;;;16.10;48.90;;;;;;5033879;28;20113;-61
2023/11/21 06:41:15;;;;;;;42.22;8.55;;;16.00;49.00;;;;;;5033907;28;20060;-61
2023/11/21 06:43:46;;;;;;;33.92;8.32;;;16.00;49.40;;;;;;5031812;28;20081;-66
2023/11/21 06:46:16;;;;;;;40.25;8.18;;;16.00;49.30;;;;;;5031898;28;20058;-60
2023/11/21 06:48:45;;;;;;;44.40;11.82;;;15.90;49.30;;;;;;5032671;28;20061;-57
2023/11/21 06:51:13;;;;;;;35.13;8.88;;;15.90;49.40;;;;;;5031522;28;20065;-60
2023/11/21 06:53:40;;;;;;;37.17;9.38;;;15.90;49.80;;;;;;5032160;28;20086;-60
2023/11/21 06:56:16;;;;;;;30.55;9.63;;;15.80;49.80;;;;;;5030998;28;20064;-61
2023/11/21 06:58:45;;;;;;;;;;;15.80;50.00;;;;;;5033061;28;20096;-61
2023/11/21 07:01:13;;;;;;;53.08;12.05;;;15.80;49.90;;;;;;5033788;28;20340;-59
2023/11/21 07:03:40;;;;;;;33.75;11.00;;;15.80;50.00;;;;;;5033083;28;20053;-60
2023/11/21 07:06:08;;;;;;;40.10;11.40;;;15.70;50.60;;;;;;5032365;28;20510;-64
2023/11/21 07:08:34;;;;;;;40.08;11.93;;;15.70;50.50;;;;;;5032666;28;20099;-61
2023/11/21 07:11:02;;;;;;;37.75;11.13;;;15.80;50.50;;;;;;5032686;28;20456;-59
2023/11/21 07:13:29;;;;;;;42.38;11.32;;;15.80;50.70;;;;;;5031058;28;20052;-57
2023/11/21 07:15:58;;;;;;;35.47;11.38;;;15.70;51.20;;;;;;5031188;28;20502;-59
2023/11/21 07:18:25;;;;;;;41.63;11.18;;;15.70;51.90;;;;;;5030589;28;20073;-58
2023/11/21 07:20:51;;;;;;;36.00;11.98;;;15.70;52.00;;;;;;5035126;28;20048;-58
2023/11/21 07:23:18;;;;;;;56.45;16.35;;;15.60;52.40;;;;;;5034630;28;20127;-62
2023/11/21 07:25:44;;;;;;;43.13;15.68;;;15.60;52.10;;;;;;5032532;28;20047;-63
2023/11/21 07:28:11;;;;;;;46.42;15.27;;;15.50;51.70;;;;;;5036990;28;20090;-62
2023/11/21 07:30:39;;;;;;;44.80;14.27;;;15.60;52.30;;;;;;5036007;28;20178;-62
2023/11/21 07:33:05;;;;;;;50.63;14.32;;;15.50;52.80;;;;;;5035263;28;20043;-62
2023/11/21 07:35:31;;;;;;;41.35;12.55;;;15.40;53.60;;;;;;5035026;28;20167;-63
2023/11/21 07:37:58;;;;;;;50.85;11.05;;;15.40;53.60;;;;;;5034807;28;20075;-60
2023/11/21 07:40:24;;;;;;;39.08;11.43;;;15.30;53.00;;;;;;5035785;28;20514;-63
2023/11/21 07:42:51;;;;;;;77.25;11.85;;;15.30;52.90;;;;;;5035457;28;20465;-64
2023/11/21 07:45:17;;;;;;;41.80;12.23;;;15.30;53.10;;;;;;5035966;28;20061;-60
2023/11/21 07:47:44;;;;;;;30.95;10.07;;;15.30;53.20;;;;;;5036621;28;20511;-63
2023/11/21 07:50:10;;;;;;;34.47;11.77;;;15.30;53.50;;;;;;5037037;28;20544;-62
2023/11/21 07:52:37;;;;;;;36.25;11.98;;;15.20;53.90;;;;;;5034014;28;20051;-63
2023/11/21 07:55:04;;;;;;;39.75;11.05;;;15.10;54.40;;;;;;5035488;28;20068;-63
2023/11/21 07:57:30;;;;;;;42.25;11.90;;;15.10;54.40;;;;;;5035829;28;20083;-62
2023/11/21 07:59:57;;;;;;;54.15;17.58;;;15.10;54.10;;;;;;5037189;28;20063;-61
2023/11/21 08:02:24;;;;;;;55.25;20.60;;;15.00;53.60;;;;;;5034479;28;20053;-63
2023/11/21 08:04:51;;;;;;;44.75;16.35;;;15.00;53.90;;;;;;5036480;28;20057;-61
2023/11/21 08:07:18;;;;;;;33.95;12.55;;;15.10;54.10;;;;;;5033880;28;20110;-63
2023/11/21 08:09:46;;;;;;;43.05;12.40;;;15.00;53.80;;;;;;5035111;28;20055;-62
2023/11/21 08:12:13;;;;;;;51.80;13.32;;;15.00;53.90;;;;;;5035694;28;20069;-62
2023/11/21 08:14:40;;;;;;;51.88;12.38;;;15.00;54.10;;;;;;5032790;28;20054;-60
2023/11/21 08:17:07;;;;;;;44.60;12.00;;;15.00;54.70;;;;;;5031893;28;20052;-60
2023/11/21 08:19:33;;;;;;;39.03;11.85;;;14.90;54.70;;;;;;5033351;28;20068;-59
2023/11/21 08:22:00;;;;;;;44.15;11.32;;;14.90;54.60;;;;;;5035135;28;20065;-61
2023/11/21 08:24:27;;;;;;;45.10;11.38;;;14.80;54.60;;;;;;5037282;28;20141;-62
2023/11/21 08:26:54;;;;;;;37.40;12.27;;;14.80;55.20;;;;;;5034517;28;20053;-60
2023/11/21 08:29:20;;;;;;;36.03;11.02;;;14.80;55.40;;;;;;5036035;28;20173;-63
2023/11/21 08:31:47;;;;;;;45.05;10.75;;;14.80;55.60;;;;;;5034689;28;20065;-62
2023/11/21 08:34:15;;;;;;;42.70;11.20;;;14.70;55.60;;;;;;5034282;28;20062;-63
2023/11/21 08:36:45;;;;;;;43.25;12.35;;;14.70;56.00;;;;;;5035941;28;20239;-62
2023/11/21 08:39:13;;;;;;;71.57;13.35;;;14.70;56.20;;;;;;5033968;28;20168;-61
2023/11/21 08:41:39;;;;;;;43.92;14.10;;;14.70;56.40;;;;;;5033448;28;20050;-61
2023/11/21 08:44:06;;;;;;;37.13;14.25;;;14.70;56.40;;;;;;5035163;28;20070;-61
2023/11/21 08:46:34;;;;;;;45.10;13.23;;;14.70;56.10;;;;;;5033385;28;20204;-61
2023/11/21 08:49:03;;;;;;;36.65;13.27;;;14.70;55.90;;;;;;5036138;28;20093;-63
2023/11/21 08:51:29;;;;;;;39.13;11.50;;;14.70;55.60;;;;;;5034928;28;20065;-62
2023/11/21 08:53:59;;;;;;;44.47;11.07;;;14.70;55.60;;;;;;5034908;28;20478;-62
2023/11/21 08:56:26;;;;;;;47.53;11.82;;;14.60;55.70;;;;;;5034953;28;20054;-62
2023/11/21 08:58:52;;;;;;;49.63;11.80;;;14.60;55.90;;;;;;5036504;28;20078;-58
2023/11/21 09:01:19;;;;;;;45.33;12.73;;;14.60;56.00;;;;;;5032909;28;20064;-61
2023/11/21 09:03:45;;;;;;;50.20;11.90;;;14.60;55.80;;;;;;5034334;28;20176;-60
2023/11/21 09:06:14;;;;;;;50.72;14.85;;;14.60;55.90;;;;;;5034834;28;20068;-70
2023/11/21 09:08:41;;;;;;;45.92;14.82;;;14.60;56.00;;;;;;5036339;28;20060;-65
2023/11/21 09:11:08;;;;;;;49.53;17.40;;;14.80;56.20;;;;;;5033237;28;20127;-67
2023/11/21 09:13:34;;;;;;;50.83;18.13;;;14.90;56.00;;;;;;5033152;28;20066;-68
2023/11/21 09:16:01;;;;;;;55.47;19.77;;;14.90;55.80;;;;;;5034844;28;20070;-68
2023/11/21 09:18:27;;;;;;;50.78;21.27;;;15.00;55.80;;;;;;5032108;28;20137;-66
2023/11/21 09:20:54;;;;;;;59.72;21.75;;;15.00;55.50;;;;;;5032445;28;20055;-66
2023/11/21 09:23:20;;;;;;;49.35;18.83;;;15.00;55.60;;;;;;5032980;28;20116;-67
2023/11/21 09:25:49;;;;;;;52.75;18.73;;;15.10;55.40;;;;;;5032308;28;20131;-68
2023/11/21 09:28:17;;;;;;;45.95;16.60;;;15.10;55.60;;;;;;5033647;28;20449;-67
2023/11/21 09:30:44;;;;;;;42.38;14.98;;;15.10;56.10;;;;;;5032757;28;20413;-66
2023/11/21 09:33:11;;;;;;;43.53;14.50;;;15.10;56.00;;;;;;5033935;28;20520;-66
2023/11/21 09:35:38;;;;;;;47.45;14.23;;;15.10;55.40;;;;;;5033933;28;20142;-68
2023/11/21 09:38:10;;;;;;;38.78;14.05;;;15.00;55.30;;;;;;5033068;28;20064;-67
2023/11/21 09:40:38;;;;;;;41.38;12.45;;;15.00;55.00;;;;;;5034110;28;20074;-65
2023/11/21 09:43:17;;;;;;;45.83;14.10;;;14.90;54.80;;;;;;5032303;28;20137;-67
2023/11/21 09:45:58;;;;;;;47.03;13.18;;;14.90;55.50;;;;;;5031601;28;20056;-65
2023/11/21 09:48:26;;;;;;;39.90;12.55;;;15.00;56.00;;;;;;5030378;28;20061;-68
2023/11/21 09:50:54;;;;;;;43.10;13.02;;;15.00;56.10;;;;;;5032085;28;20070;-65
2023/11/21 09:53:26;;;;;;;40.00;12.15;;;14.90;55.70;;;;;;5034973;28;20415;-67
2023/11/21 09:55:54;;;;;;;37.65;11.10;;;15.00;56.00;;;;;;5031658;28;20146;-67
2023/11/21 09:58:22;;;;;;;42.95;11.60;;;15.00;55.80;;;;;;5030920;28;20090;-66
2023/11/21 10:00:52;;;;;;;28.52;9.60;;;15.00;56.40;;;;;;5034078;28;20125;-68
2023/11/21 10:03:19;;;;;;;36.08;10.45;;;15.00;55.60;;;;;;5034241;28;20121;-67
2023/11/21 10:05:49;;;;;;;32.50;10.57;;;15.00;55.90;;;;;;5033412;28;20141;-68
2023/11/21 10:08:16;;;;;;;39.05;10.27;;;14.90;56.20;;;;;;5034864;28;20086;-68
2023/11/21 10:10:49;;;;;;;40.42;9.93;;;15.00;56.40;;;;;;5040015;28;20062;-66
2023/11/21 10:13:17;;;;;;;30.92;8.43;;;14.90;55.90;;;;;;5037602;28;20572;-66
2023/11/21 10:15:48;;;;;;;29.13;8.25;;;14.90;55.50;;;;;;5038505;28;20055;-67
2023/11/21 10:18:15;;;;;;;26.70;7.28;;;14.90;55.50;;;;;;5040395;28;20078;-66
2023/11/21 10:20:43;;;;;;;21.27;5.93;;;14.90;55.70;;;;;;5031863;28;20059;-67
2023/11/21 10:23:11;;;;;;;19.10;5.20;;;14.90;55.60;;;;;;5033436;28;20048;-67
2023/11/21 10:25:38;;;;;;;16.98;4.57;;;15.00;55.40;;;;;;5034158;28;20500;-66
2023/11/21 10:28:05;;;;;;;19.00;3.85;;;15.10;55.40;;;;;;5032596;28;20119;-68
2023/11/21 10:30:36;;;;;;;24.63;5.30;;;15.10;54.90;;;;;;5032445;28;20088;-66
2023/11/21 10:33:04;;;;;;;20.27;5.13;;;15.10;55.10;;;;;;5032185;28;20105;-67
2023/11/21 10:35:50;;;;;;;22.15;4.90;;;15.20;54.80;;;;;;5032483;28;20053;-67
2023/11/21 10:38:17;;;;;;;22.02;5.65;;;15.20;54.80;;;;;;5032311;28;20068;-67
2023/11/21 10:40:46;;;;;;;23.90;5.22;;;15.20;54.90;;;;;;5033875;28;20114;-68
2023/11/21 10:43:15;;;;;;;16.13;5.63;;;15.20;55.10;;;;;;5030612;28;20053;-66
2023/11/21 10:45:42;;;;;;;25.17;6.40;;;15.20;55.40;;;;;;5031445;28;20054;-68
2023/11/21 10:48:16;;;;;;;24.63;6.28;;;15.20;55.40;;;;;;5033281;28;20061;-68
2023/11/21 10:50:47;;;;;;;16.70;5.70;;;15.20;56.00;;;;;;5032124;28;20157;-68
2023/11/21 10:53:13;;;;;;;22.13;6.75;;;15.10;56.20;;;;;;5034196;28;20454;-67
2023/11/21 10:55:40;;;;;;;22.17;6.50;;;15.10;56.10;;;;;;5033770;28;20707;-68
2023/11/21 10:58:10;;;;;;;24.70;6.22;;;15.00;56.00;;;;;;5030025;28;20076;-68
2023/11/21 11:00:37;;;;;;;16.98;5.72;;;15.00;56.30;;;;;;5034629;28;20094;-67
2023/11/21 11:03:04;;;;;;;14.25;5.15;;;15.00;56.30;;;;;;5036350;28;20064;-69
2023/11/21 11:05:35;;;;;;;20.33;5.93;;;15.00;56.80;;;;;;5035181;28;20415;-68
2023/11/21 11:08:12;;;;;;;28.58;6.25;;;15.00;56.70;;;;;;5037223;28;20057;-66
2023/11/21 11:10:38;;;;;;;21.90;6.40;;;14.90;57.60;;;;;;5035282;28;20061;-68
2023/11/21 11:13:06;;;;;;;35.42;14.20;;;14.90;56.80;;;;;;5034954;28;20510;-68
2023/11/21 11:15:33;;;;;;;22.33;5.75;;;14.90;57.00;;;;;;5037103;28;20160;-66
2023/11/21 11:18:00;;;;;;;22.60;6.47;;;14.80;56.90;;;;;;5035415;28;20539;-67
2023/11/21 11:20:33;;;;;;;23.45;7.25;;;14.70;56.80;;;;;;5035733;28;20051;-68
2023/11/21 11:23:02;;;;;;;24.02;6.95;;;14.70;56.80;;;;;;5035327;28;20402;-67
2023/11/21 11:25:41;;;;;;;17.60;6.32;;;14.60;56.80;;;;;;5038161;28;20057;-66
2023/11/21 11:28:20;;;;;;;25.25;7.18;;;14.70;56.80;;;;;;5035647;28;20093;-67
2023/11/21 11:31:24;;;;;;;22.83;6.25;;;14.60;56.60;;;;;;5035914;28;20092;-67
2023/11/21 11:34:16;;;;;;;20.60;6.20;;;14.60;56.70;;;;;;5034250;28;20063;-67
2023/11/21 11:36:56;;;;;;;19.70;5.85;;;14.60;57.10;;;;;;5035607;28;20059;-67
2023/11/21 11:39:35;;;;;;;23.27;6.72;;;14.50;57.60;;;;;;5033664;28;20137;-65
2023/11/21 11:42:17;;;;;;;24.48;6.60;;;14.50;58.30;;;;;;5033394;28;20546;-68
2023/11/21 11:44:47;;;;;;;18.35;5.65;;;14.50;57.80;;;;;;5035489;28;20134;-70
2023/11/21 11:47:33;;;;;;;20.92;5.65;;;14.50;57.10;;;;;;5034548;28;20117;-68
2023/11/21 11:50:06;;;;;;;23.13;7.15;;;14.50;57.10;;;;;;5035013;28;20063;-68
2023/11/21 11:52:39;;;;;;;21.63;6.63;;;14.50;57.20;;;;;;5033055;28;20057;-67
2023/11/21 11:55:10;;;;;;;29.67;7.07;;;14.50;56.80;;;;;;5033694;28;20551;-67
2023/11/21 11:57:38;;;;;;;26.35;6.90;;;14.50;56.60;;;;;;5033760;28;20420;-67
2023/11/21 12:00:28;;;;;;;25.83;7.07;;;14.40;56.80;;;;;;5035186;28;20117;-68
2023/11/21 12:02:57;;;;;;;21.67;6.55;;;14.40;57.10;;;;;;5035297;28;20154;-67
2023/11/21 12:05:23;;;;;;;14.98;6.30;;;14.40;57.80;;;;;;5036588;28;20077;-68
2023/11/21 12:07:54;;;;;;;19.90;6.03;;;14.40;57.60;;;;;;5036176;28;20146;-68
2023/11/21 12:10:24;;;;;;;20.80;6.70;;;14.30;57.50;;;;;;5036122;28;20122;-68
2023/11/21 12:12:52;;;;;;;20.42;5.90;;;14.30;57.60;;;;;;5033467;28;20068;-66
2023/11/21 12:15:21;;;;;;;17.98;5.68;;;14.30;57.80;;;;;;5034512;28;20519;-67
2023/11/21 12:17:48;;;;;;;16.85;6.13;;;14.30;57.80;;;;;;5032604;28;20477;-68
2023/11/21 12:20:18;;;;;;;14.65;5.82;;;14.30;57.80;;;;;;5033201;28;20076;-67
2023/11/21 12:22:50;;;;;;;18.08;6.38;;;14.30;57.70;;;;;;5035254;28;20061;-66
2023/11/21 12:25:21;;;;;;;28.92;6.25;;;14.30;57.80;;;;;;5034563;28;20057;-68
2023/11/21 12:27:52;;;;;;;24.30;6.15;;;14.30;58.00;;;;;;5035146;28;20089;-67
2023/11/21 12:30:21;;;;;;;20.83;5.68;;;14.30;58.10;;;;;;5033999;28;20069;-66
2023/11/21 12:32:53;;;;;;;16.75;5.38;;;14.20;58.10;;;;;;5036896;28;20074;-67
2023/11/21 12:35:22;;;;;;;16.65;5.75;;;14.20;58.10;;;;;;5034325;28;20156;-66
2023/11/21 12:37:49;;;;;;;19.00;5.57;;;14.20;58.10;;;;;;5036221;28;20081;-67